Time;durP1;ratioP1;P1;durP2;ratioP2;P2;SDS_P1;SDS_P2;PMS_P1;PMS_P2;Temp;Humidity;BMP_temperature;BMP_pressure;BME280_temperature;BME280_humidity;BME280_pressure;Samples;Min_cycle;Max_cycle;Signal;HPM_P1;HPM_P2
2022/11/04 00:00:52;;;;;;;19.25;17.45;;;;;;;28.37;63.34;101139.88;4993464;28;66565;-42
2022/11/04 00:03:23;;;;;;;18.95;17.05;;;;;;;28.38;63.54;101138.81;4995346;28;69236;-43
2022/11/04 00:05:53;;;;;;;18.73;16.95;;;;;;;28.45;63.68;101141.63;4998267;28;66644;-40
2022/11/04 00:08:23;;;;;;;23.55;16.80;;;;;;;28.43;63.34;101144.50;4997038;28;70570;-40
2022/11/04 00:13:46;;;;;;;16.55;14.90;;;;;;;28.51;63.46;101148.91;4993211;28;70141;-40
2022/11/04 00:19:05;;;;;;;16.60;15.07;;;;;;;28.54;63.36;101158.47;4993724;28;70253;-40
2022/11/04 00:30:06;;;;;;;15.75;14.43;;;;;;;28.64;62.70;101164.34;4996895;28;70221;-41
2022/11/04 00:35:25;;;;;;;16.33;14.95;;;;;;;28.66;62.57;101167.69;4996117;28;69228;-40
2022/11/04 00:37:56;;;;;;;15.68;14.50;;;;;;;28.69;62.03;101169.97;4998153;28;66318;-40
2022/11/04 00:40:28;;;;;;;;;;;;;;;28.34;63.68;101172.63;4996000;28;44045;-41
2022/11/04 00:42:57;;;;;;;14.48;13.23;;;;;;;28.59;62.20;101159.56;4996767;28;66726;-41
2022/11/04 00:45:27;;;;;;;15.93;14.52;;;;;;;28.72;61.84;101180.38;4986459;28;69639;-40
2022/11/04 00:47:57;;;;;;;15.73;14.38;;;;;;;28.74;61.70;101178.31;4996061;28;66856;-41
2022/11/04 00:50:28;;;;;;;15.23;13.93;;;;;;;28.77;61.57;101183.31;4996847;28;71059;-40
2022/11/04 00:52:59;;;;;;;14.88;13.52;;;;;;;28.35;61.53;101108.72;4998687;28;65528;-40
2022/11/04 00:55:30;;;;;;;15.35;13.88;;;;;;;28.79;61.65;101181.25;4996500;28;71049;-41
2022/11/04 00:58:00;;;;;;;14.75;13.55;;;;;;;28.82;61.60;101185.44;4997387;28;66103;-41
2022/11/04 01:00:30;;;;;;;14.95;13.68;;;;;;;28.80;61.33;101177.53;4996389;28;70310;-40
2022/11/04 01:03:01;;;;;;;15.23;13.82;;;;;;;28.86;61.30;101186.69;4995650;28;66842;-40
2022/11/04 01:05:31;;;;;;;13.73;12.90;;;;;;;28.88;61.10;101190.03;4996036;28;69592;-40
2022/11/04 01:08:00;;;;;;;13.65;12.70;;;;;;;28.79;61.34;101189.38;4993862;28;66444;-40
2022/11/04 01:10:33;;;;;;;14.07;13.05;;;;;;;28.90;61.15;101204.19;4996623;28;70146;-40
2022/11/04 01:13:03;;;;;;;14.43;12.98;;;;;;;28.91;61.02;101206.66;4998788;28;66752;-39
2022/11/04 01:15:35;;;;;;;14.90;13.55;;;;;;;28.93;60.88;101207.31;4994906;28;70494;-38
2022/11/04 01:18:06;;;;;;;14.15;13.20;;;;;;;28.93;61.44;101207.31;4998593;28;65443;-38
2022/11/04 01:20:36;;;;;;;14.68;13.52;;;;;;;28.98;61.33;101214.00;4998122;28;69266;-38
2022/11/04 01:23:06;;;;;;;13.55;12.63;;;;;;;28.82;61.34;101186.25;4998538;28;66470;-40
2022/11/04 01:25:40;;;;;;;14.27;13.27;;;;;;;28.39;60.62;101110.81;5000110;28;69567;-38
2022/11/04 01:28:10;;;;;;;13.18;12.35;;;;;;;28.86;60.85;101192.09;4996447;28;66190;-39
2022/11/04 01:30:40;;;;;;;13.98;12.95;;;;;;;29.05;60.49;101222.97;4990740;28;69810;-39
2022/11/04 01:33:09;;;;;;;13.90;12.93;;;;;;;29.05;60.63;101228.38;4998917;28;65338;-39
2022/11/04 01:35:39;;;;;;;14.02;13.05;;;;;;;29.08;60.75;101227.97;4999550;28;70415;-39
2022/11/04 01:38:09;;;;;;;13.80;12.73;;;;;;;29.07;61.04;101232.53;4997187;28;67095;-40
2022/11/04 01:40:40;;;;;;;13.95;12.95;;;;;;;29.12;60.86;101242.75;4997429;28;69813;-40
2022/11/04 01:43:19;;;;;;;14.05;12.95;;;;;;;29.13;60.50;101236.31;4996793;28;66544;-39
2022/11/04 01:46:01;;;;;;;15.00;13.93;;;;;;;28.67;60.82;101161.28;4999978;28;70608;-39
2022/11/04 01:48:34;;;;;;;14.80;13.37;;;;;;;28.61;60.24;101144.00;4997326;28;66220;-39
2022/11/04 01:51:05;;;;;;;16.73;13.07;;;;;;;29.18;60.42;101239.25;4997406;28;70809;-40
2022/11/04 01:53:39;;;;;;;15.50;13.80;;;;;;;29.16;60.90;101242.16;4999060;28;65974;-38
2022/11/04 01:56:12;;;;;;;13.98;12.65;;;;;;;29.14;60.30;101238.84;4995262;28;67870;-38
2022/11/04 01:58:50;;;;;;;14.18;12.95;;;;;;;29.22;60.67;101248.63;4999610;28;66547;-39
2022/11/04 02:01:20;;;;;;;14.77;12.80;;;;;;;29.11;60.37;101231.13;4998964;28;69344;-38
2022/11/04 02:03:55;;;;;;;14.07;12.80;;;;;;;29.02;60.13;101205.25;4993864;28;66615;-39
2022/11/04 02:06:25;;;;;;;14.18;12.77;;;;;;;29.27;60.97;101248.03;4996943;28;69565;-39
2022/11/04 02:08:55;;;;;;;15.15;12.95;;;;;;;29.27;60.78;101253.44;4993096;28;66304;-39
2022/11/04 02:14:13;;;;;;;13.93;12.73;;;;;;;29.24;60.24;101249.25;4996402;28;66066;-41
2022/11/04 02:16:46;;;;;;;13.77;12.45;;;;;;;29.29;60.18;101257.59;4995937;28;70326;-39
2022/11/04 02:19:22;;;;;;;12.98;11.98;;;;;;;29.36;60.63;101252.22;4997485;28;65545;-39
2022/11/04 02:22:24;;;;;;;13.90;12.52;;;;;;;29.29;60.51;101251.38;4996118;28;70165;-38
2022/11/04 02:25:06;;;;;;;12.70;11.68;;;;;;;29.36;60.37;101258.47;4999773;28;65494;-39
2022/11/04 02:28:15;;;;;;;13.32;12.20;;;;;;;29.27;60.44;101254.25;4994475;28;69487;-38
2022/11/04 02:30:51;;;;;;;13.05;11.95;;;;;;;27.95;60.59;101011.38;4993088;28;66145;-38
2022/11/04 02:33:43;;;;;;;12.48;11.57;;;;;;;29.08;60.56;101206.38;4995998;28;70370;-39
2022/11/04 02:36:22;;;;;;;13.23;12.07;;;;;;;29.44;60.55;101248.50;4996563;28;67155;-38
2022/11/04 02:38:54;;;;;;;13.80;12.48;;;;;;;29.47;60.01;101253.50;4995979;28;69232;-39
2022/11/04 02:41:43;;;;;;;12.93;11.88;;;;;;;29.51;60.37;101238.56;4998358;28;66938;-39
2022/11/04 02:44:26;;;;;;;13.02;11.70;;;;;;;29.49;60.29;101241.47;4998395;28;69561;-39
2022/11/04 02:47:05;;;;;;;13.07;12.07;;;;;;;29.50;59.81;101242.28;4997769;28;66264;-39
2022/11/04 02:49:45;;;;;;;12.30;11.32;;;;;;;29.51;59.74;101243.97;4998058;28;69115;-39
2022/11/04 02:52:52;;;;;;;12.52;11.52;;;;;;;29.01;60.25;101162.28;4996555;28;65487;-37
2022/11/04 02:55:33;;;;;;;12.20;11.30;;;;;;;29.49;59.76;101227.13;4996465;28;70140;-39
2022/11/04 02:58:08;;;;;;;12.48;11.57;;;;;;;29.06;59.99;101149.88;4998873;28;66132;-40
2022/11/04 03:00:41;;;;;;;13.75;11.45;;;;;;;29.02;59.84;101136.91;4998177;28;70382;-39
2022/11/04 03:03:22;;;;;;;13.77;12.65;;;;;;;29.64;59.61;101235.91;4997310;28;66274;-39
2022/11/04 03:05:56;;;;;;;15.05;13.63;;;;;;;29.65;59.54;101224.09;4993983;28;70572;-38
2022/11/04 03:08:37;;;;;;;12.48;11.40;;;;;;;29.67;59.52;101232.84;4997217;28;66198;-40
2022/11/04 03:11:27;;;;;;;12.23;11.30;;;;;;;29.12;60.03;101156.31;4994484;28;69585;-39
2022/11/04 03:13:59;;;;;;;13.10;11.65;;;;;;;29.76;59.35;101241.59;4996213;28;66154;-38
2022/11/04 03:16:51;;;;;;;15.32;13.93;;;;;;;29.70;60.05;101232.44;4996587;28;69869;-38
2022/11/04 03:19:53;;;;;;;14.43;13.27;;;;;;;29.61;60.09;101222.78;4993405;28;65820;-38
2022/11/04 03:22:25;;;;;;;;;;;;;;;29.47;60.83;101224.59;4996358;28;70162;-39
2022/11/04 03:24:56;;;;;;;16.30;14.90;;;;;;;29.77;60.24;101227.84;4998354;28;66128;-38
2022/11/04 03:27:42;;;;;;;19.58;17.25;;;;;;;29.82;59.75;101221.84;4997345;28;70030;-40
2022/11/04 03:30:21;;;;;;;22.85;19.70;;;;;;;29.43;59.45;101154.97;4999801;28;66718;-40
2022/11/04 03:33:17;;;;;;;34.28;26.42;;;;;;;29.80;59.95;101222.03;4997425;28;70378;-40
2022/11/04 03:35:48;;;;;;;20.75;18.65;;;;;;;29.89;59.42;101216.44;4993420;28;66267;-40
2022/11/04 03:38:21;;;;;;;19.42;17.48;;;;;;;29.31;59.30;101106.94;4997743;28;69938;-39
2022/11/04 03:40:51;;;;;;;29.67;23.20;;;;;;;29.95;59.67;101202.06;4996646;28;65894;-39
2022/11/04 03:43:26;;;;;;;24.55;22.10;;;;;;;29.51;59.54;101119.66;4992550;28;70559;-38
2022/11/04 03:45:56;;;;;;;24.40;21.98;;;;;;;29.98;59.79;101191.69;4992455;28;66267;-39
2022/11/04 03:48:27;;;;;;;47.25;36.55;;;;;;;30.00;59.40;101181.47;5000736;28;70350;-38
2022/11/04 03:50:58;;;;;;;47.05;37.53;;;;;;;30.03;59.21;101182.94;4993950;28;66433;-39
2022/11/04 03:53:29;;;;;;;55.72;40.55;;;;;;;30.04;59.20;101174.63;4993120;28;70261;-39
2022/11/04 03:56:19;;;;;;;;;;;;;;;29.56;60.30;101139.63;4998030;28;65384;-39
2022/11/04 03:58:58;;;;;;;53.03;40.63;;;;;;;30.06;59.54;101177.13;4995803;28;69949;-39
2022/11/04 04:02:08;;;;;;;48.50;36.90;;;;;;;29.95;59.57;101161.50;4992159;28;66128;-40
2022/11/04 04:04:44;;;;;;;56.63;46.22;;;;;;;29.59;59.91;101078.91;4956296;28;69540;-40
2022/11/04 04:08:06;;;;;;;61.35;45.58;;;;;;;29.99;59.58;101154.66;5011471;28;65514;-38
2022/11/04 04:10:48;;;;;;;49.28;38.22;;;;;;;29.98;59.66;101142.19;4979177;28;69307;-39
2022/11/04 04:13:34;;;;;;;48.93;38.30;;;;;;;30.13;59.68;101150.91;4995637;28;65639;-37
2022/11/04 04:16:15;;;;;;;65.50;47.63;;;;;;;29.61;59.47;101057.88;4991850;28;69508;-38
2022/11/04 04:18:53;;;;;;;57.40;44.20;;;;;;;29.70;59.53;101064.78;4995023;28;66763;-38
2022/11/04 04:21:31;;;;;;;59.40;44.23;;;;;;;30.12;59.94;101122.19;4995945;28;69539;-38
2022/11/04 04:29:44;;;;;;;67.80;48.88;;;;;;;29.77;60.10;101054.78;4996786;28;65807;-41
2022/11/04 04:32:16;;;;;;;64.82;47.90;;;;;;;29.92;59.46;101072.66;5008929;28;68163;-40
2022/11/04 04:34:46;;;;;;;61.40;45.63;;;;;;;30.16;59.73;101107.19;4989928;28;65375;-40
2022/11/04 04:37:25;;;;;;;59.40;45.35;;;;;;;29.76;59.62;101036.91;4997610;28;69460;-38
2022/11/04 04:45:56;;;;;;;54.13;43.47;;;;;;;30.25;59.32;101095.13;4994823;28;65424;-40
2022/11/04 04:48:26;;;;;;;57.83;43.50;;;;;;;30.26;59.91;101086.00;4985697;28;70746;-39
2022/11/04 04:51:00;;;;;;;49.88;40.63;;;;;;;30.27;59.59;101082.22;4993891;28;66317;-40
2022/11/04 04:53:30;;;;;;;57.38;42.00;;;;;;;30.32;59.46;101078.06;4994757;28;69773;-41
2022/11/04 04:56:01;;;;;;;52.88;42.80;;;;;;;30.19;59.91;101057.25;4994084;28;66592;-41
2022/11/04 04:58:31;;;;;;;53.83;41.05;;;;;;;30.35;59.31;101066.81;4996919;28;70370;-39
2022/11/04 05:01:03;;;;;;;49.97;40.13;;;;;;;30.24;59.45;101039.38;4995777;28;65646;-39
2022/11/04 05:03:33;;;;;;;53.30;40.08;;;;;;;30.38;59.20;101061.81;4994678;28;70490;-38
2022/11/04 05:06:07;;;;;;;47.83;38.10;;;;;;;30.36;59.49;101049.53;4995721;28;65837;-40
2022/11/04 05:08:37;;;;;;;53.20;39.60;;;;;;;30.40;59.21;101053.50;4995349;28;69464;-40
2022/11/04 05:11:07;;;;;;;50.45;40.67;;;;;;;30.26;59.37;101018.34;4993684;28;67079;-40
2022/11/04 05:13:37;;;;;;;58.80;43.35;;;;;;;30.28;59.40;101013.56;4991501;28;70306;-40
2022/11/04 05:16:09;;;;;;;58.83;42.50;;;;;;;30.08;60.09;100980.25;4996540;28;66410;-41
2022/11/04 05:18:40;;;;;;;55.90;40.17;;;;;;;30.43;59.54;101034.13;4995728;28;70687;-40
2022/11/04 05:21:12;;;;;;;50.75;39.75;;;;;;;30.03;60.05;100955.72;4996177;28;66307;-41
2022/11/04 05:23:42;;;;;;;49.42;40.92;;;;;;;30.44;59.92;101022.22;4994293;28;69605;-40
2022/11/04 05:26:14;;;;;;;49.88;40.53;;;;;;;30.45;60.25;101023.88;4994555;28;66063;-42
2022/11/04 05:28:44;;;;;;;49.20;38.97;;;;;;;30.42;59.72;101019.75;4995590;28;69972;-42
2022/11/04 05:31:14;;;;;;;49.45;39.70;;;;;;;30.32;59.91;100994.19;4992671;28;66720;-39
2022/11/04 05:33:44;;;;;;;48.67;39.85;;;;;;;30.45;59.66;101008.50;4995241;28;69929;-40
2022/11/04 05:36:15;;;;;;;50.88;40.88;;;;;;;30.46;60.07;101006.63;4992765;28;66714;-39
2022/11/04 05:38:50;;;;;;;50.28;41.50;;;;;;;30.38;59.85;100991.44;4992014;28;68946;-38
2022/11/04 05:41:25;;;;;;;54.35;42.55;;;;;;;30.44;60.35;100995.16;4992922;28;66690;-38
2022/11/04 05:44:01;;;;;;;51.15;39.30;;;;;;;30.46;60.36;100996.63;4995618;28;69753;-40
2022/11/04 05:46:31;;;;;;;47.42;39.25;;;;;;;30.47;60.01;100990.13;4992557;28;65984;-40
2022/11/04 05:49:01;;;;;;;45.72;37.30;;;;;;;30.49;59.98;100989.94;4995059;28;70078;-40
2022/11/04 05:51:31;;;;;;;44.83;36.88;;;;;;;30.28;59.67;100948.59;4993280;28;65747;-41
2022/11/04 05:54:02;;;;;;;47.45;36.53;;;;;;;30.53;59.96;100976.78;4995198;28;70530;-40
2022/11/04 05:56:32;;;;;;;51.03;38.90;;;;;;;30.54;59.85;100963.06;4995129;28;66194;-39
2022/11/04 05:59:02;;;;;;;45.03;36.85;;;;;;;30.55;59.61;100964.72;4997547;28;70357;-38
2022/11/04 06:01:34;;;;;;;43.17;35.97;;;;;;;30.58;59.75;100956.16;4996395;28;65669;-39
2022/11/04 06:04:05;;;;;;;45.67;37.05;;;;;;;30.61;59.63;100950.28;4998223;28;70052;-39
2022/11/04 06:06:37;;;;;;;40.25;35.05;;;;;;;30.62;60.02;100943.84;4997149;28;66201;-39
2022/11/04 06:09:07;;;;;;;;;;;;;;;30.29;60.37;100949.44;5000575;28;70340;-38
2022/11/04 06:11:38;;;;;;;44.20;36.05;;;;;;;30.61;59.62;100941.34;4998956;28;66924;-39
2022/11/04 06:14:08;;;;;;;44.75;35.15;;;;;;;30.64;59.51;100941.75;4994103;28;69478;-38
2022/11/04 06:16:43;;;;;;;44.85;34.42;;;;;;;30.65;59.61;100938.00;4998222;28;66457;-39
2022/11/04 06:19:13;;;;;;;43.95;34.15;;;;;;;30.60;59.50;100932.41;4991416;28;70219;-40
2022/11/04 06:21:44;;;;;;;42.40;33.28;;;;;;;30.62;59.70;100930.31;4997582;28;66200;-39
2022/11/04 06:24:14;;;;;;;38.78;33.50;;;;;;;30.32;59.57;100878.63;4997663;28;70580;-39
2022/11/04 06:26:44;;;;;;;42.42;33.65;;;;;;;30.71;59.58;100926.28;4989550;28;66432;-38
2022/11/04 06:29:14;;;;;;;40.58;32.97;;;;;;;30.72;59.98;100922.53;4993946;28;70032;-39
2022/11/04 06:31:44;;;;;;;39.92;32.55;;;;;;;30.74;59.93;100914.19;4997267;28;65965;-39
2022/11/04 06:34:14;;;;;;;39.08;32.70;;;;;;;30.77;59.70;100915.63;4997008;28;70180;-39
2022/11/04 06:36:44;;;;;;;37.30;30.08;;;;;;;30.78;59.81;100909.16;4997605;28;67200;-39
2022/11/04 06:39:14;;;;;;;36.55;31.48;;;;;;;30.79;59.85;100917.09;4999616;28;69831;-39
2022/11/04 06:41:44;;;;;;;39.13;33.20;;;;;;;30.70;59.36;100900.28;4995360;28;65743;-39
2022/11/04 06:44:19;;;;;;;35.83;31.88;;;;;;;30.81;59.86;100919.59;4994986;28;70301;-38
2022/11/04 06:46:49;;;;;;;34.35;30.63;;;;;;;30.65;59.79;100891.97;4997045;28;66525;-41
2022/11/04 06:49:24;;;;;;;36.35;31.48;;;;;;;30.43;59.81;100863.59;4996401;28;70347;-40
2022/11/04 06:51:54;;;;;;;34.97;30.33;;;;;;;30.83;59.52;100925.63;4997913;28;65398;-38
2022/11/04 06:54:24;;;;;;;39.53;31.38;;;;;;;30.83;59.97;100922.91;4995138;28;70502;-39
2022/11/04 06:56:54;;;;;;;36.92;30.77;;;;;;;30.84;59.76;100913.72;5006799;28;66249;-39
2022/11/04 06:59:24;;;;;;;34.20;30.08;;;;;;;30.77;59.49;100902.09;4998523;28;69790;-38
2022/11/04 07:01:54;;;;;;;33.50;29.70;;;;;;;30.88;59.79;100899.53;4998439;28;66567;-39
2022/11/04 07:04:24;;;;;;;35.28;30.50;;;;;;;30.88;59.37;100894.13;4996450;28;69811;-39
2022/11/04 07:06:54;;;;;;;32.83;29.38;;;;;;;30.88;59.38;100893.31;4995502;28;66701;-39
2022/11/04 07:09:24;;;;;;;32.47;29.05;;;;;;;30.79;59.69;100883.75;4996075;28;70255;-39
2022/11/04 07:11:54;;;;;;;34.97;30.05;;;;;;;30.89;59.55;100897.66;4994123;28;65652;-40
2022/11/04 07:14:24;;;;;;;37.10;28.98;;;;;;;30.74;59.64;100870.88;4994852;28;69986;-39
2022/11/04 07:16:54;;;;;;;34.53;29.75;;;;;;;30.91;59.66;100898.28;4998596;28;66826;-40
2022/11/04 07:19:27;;;;;;;37.10;29.88;;;;;;;30.88;59.36;100901.44;4993701;28;70137;-40
2022/11/04 07:25:11;;;;;;;29.65;26.60;;;;;;;30.90;59.79;100899.34;4996824;28;68684;-40
2022/11/04 07:27:41;;;;;;;31.85;28.40;;;;;;;30.91;59.72;100896.38;4997228;28;66716;-39
2022/11/04 07:30:11;;;;;;;31.67;27.08;;;;;;;30.92;59.65;100889.94;4991829;28;70720;-40
2022/11/04 07:32:41;;;;;;;30.23;26.70;;;;;;;30.59;59.95;100836.00;4996411;28;66525;-39
2022/11/04 07:35:11;;;;;;;29.58;24.55;;;;;;;30.93;59.71;100890.78;4998671;28;70527;-39
2022/11/04 07:37:41;;;;;;;28.30;25.40;;;;;;;30.91;59.77;100882.03;4996454;28;66568;-39
2022/11/04 07:40:11;;;;;;;30.02;25.73;;;;;;;30.93;59.61;100885.34;4991248;28;69665;-39
2022/11/04 07:42:41;;;;;;;34.80;27.00;;;;;;;30.88;59.79;100887.88;4997306;28;65722;-40
2022/11/04 07:45:17;;;;;;;28.50;25.33;;;;;;;30.59;59.79;100852.25;4997239;28;69560;-38
2022/11/04 07:47:47;;;;;;;29.13;24.95;;;;;;;30.90;59.91;100900.16;4996698;28;66509;-39
2022/11/04 07:50:17;;;;;;;27.80;24.80;;;;;;;30.90;59.93;100912.88;4990524;28;70404;-39
2022/11/04 07:52:49;;;;;;;28.42;25.35;;;;;;;30.96;60.01;100922.84;4997715;28;65850;-40
2022/11/04 07:55:19;;;;;;;27.60;24.85;;;;;;;30.94;59.83;100930.34;4998011;28;70542;-40
2022/11/04 07:57:49;;;;;;;26.58;23.77;;;;;;;30.96;59.63;100940.97;4995700;28;66388;-40
2022/11/04 08:00:19;;;;;;;27.88;24.77;;;;;;;30.94;59.81;100935.75;4991638;28;69845;-39
2022/11/04 08:02:50;;;;;;;26.77;24.05;;;;;;;30.93;59.39;100929.50;4996901;28;66500;-39
2022/11/04 08:05:20;;;;;;;26.70;23.80;;;;;;;30.90;60.07;100931.84;4995415;28;69465;-39
2022/11/04 08:07:51;;;;;;;28.65;24.42;;;;;;;30.92;59.66;100921.59;4997084;28;66584;-39
2022/11/04 08:10:21;;;;;;;28.05;23.75;;;;;;;30.93;60.34;100928.69;4995161;28;69845;-38
2022/11/04 08:12:51;;;;;;;25.77;22.38;;;;;;;30.80;60.61;100907.13;4996096;28;66747;-40
2022/11/04 08:15:21;;;;;;;24.08;21.58;;;;;;;30.90;60.41;100918.28;4997536;28;69610;-40
2022/11/04 08:17:51;;;;;;;25.60;20.35;;;;;;;30.77;60.60;100907.53;4996310;28;65308;-40
2022/11/04 08:20:21;;;;;;;19.98;18.20;;;;;;;30.86;61.32;100917.06;4993434;28;70270;-41
2022/11/04 08:22:51;;;;;;;20.65;18.27;;;;;;;30.75;61.72;100899.59;4995091;28;65672;-39
2022/11/04 08:25:22;;;;;;;20.20;18.10;;;;;;;30.66;61.92;100885.50;4996832;28;70399;-40
2022/11/04 08:27:52;;;;;;;19.48;17.60;;;;;;;30.77;62.54;100910.22;4992657;28;65764;-40
2022/11/04 08:30:28;;;;;;;18.33;16.50;;;;;;;30.78;62.19;100911.88;4994941;28;69490;-40
2022/11/04 08:32:59;;;;;;;17.23;15.68;;;;;;;30.76;62.20;100909.41;4997347;28;67286;-39
2022/11/04 08:35:30;;;;;;;18.40;16.73;;;;;;;30.70;62.28;100897.56;4993066;28;70103;-39
2022/11/04 08:38:04;;;;;;;16.80;15.50;;;;;;;30.73;62.62;100916.09;4994664;28;66770;-39
2022/11/04 08:40:36;;;;;;;18.23;16.50;;;;;;;30.70;62.89;100916.53;4992080;28;70038;-38
2022/11/04 08:43:07;;;;;;;17.73;16.13;;;;;;;30.71;62.42;100923.59;4993382;28;66850;-40
2022/11/04 08:45:43;;;;;;;16.93;15.53;;;;;;;30.59;63.21;100905.53;4995298;28;69044;-39
2022/11/04 08:48:15;;;;;;;16.92;15.43;;;;;;;30.69;62.44;100928.38;4993186;28;66636;-41
2022/11/04 08:50:49;;;;;;;16.50;14.93;;;;;;;30.38;62.82;100882.34;4994337;28;69702;-39
2022/11/04 08:53:20;;;;;;;15.80;14.52;;;;;;;30.67;63.21;100925.09;4996363;28;66265;-39
2022/11/04 08:55:50;;;;;;;16.10;14.82;;;;;;;30.63;62.91;100931.97;4994677;28;70901;-39
2022/11/04 08:58:22;;;;;;;16.23;15.02;;;;;;;30.63;63.51;100929.25;4996986;28;65535;-39
2022/11/04 09:00:52;;;;;;;15.48;14.18;;;;;;;30.49;63.54;100911.44;4995890;28;70086;-38
2022/11/04 09:03:22;;;;;;;15.05;13.90;;;;;;;30.50;63.48;100913.09;4996421;28;66759;-39
2022/11/04 09:05:52;;;;;;;15.75;14.38;;;;;;;30.42;63.12;100911.50;4996107;28;69413;-38
2022/11/04 09:08:22;;;;;;;14.77;13.52;;;;;;;30.59;63.84;100938.88;4992358;28;66403;-39
2022/11/04 09:10:52;;;;;;;15.93;14.25;;;;;;;30.59;63.12;100943.44;4993455;28;69883;-40
2022/11/04 09:13:22;;;;;;;14.90;13.65;;;;;;;30.58;63.17;100945.31;4990182;28;66554;-39
2022/11/04 09:15:53;;;;;;;14.35;13.25;;;;;;;30.57;63.56;100946.38;4990477;28;69571;-41
2022/11/04 09:18:23;;;;;;;14.82;13.55;;;;;;;30.56;63.33;100952.00;4992592;28;65486;-40
2022/11/04 09:20:54;;;;;;;14.07;12.87;;;;;;;30.53;63.22;100945.13;4991623;28;70092;-42
2022/11/04 09:23:24;;;;;;;13.38;12.45;;;;;;;30.43;66.46;100950.19;4991100;28;66168;-42
2022/11/04 09:25:56;;;;;;;13.45;12.35;;;;;;;30.33;67.39;100957.94;4989611;28;69729;-43
2022/11/04 09:28:27;;;;;;;13.27;11.65;;;;;;;30.30;68.20;100961.09;4996423;28;66930;-42
2022/11/04 09:30:57;;;;;;;13.05;11.93;;;;;;;30.26;68.97;100966.94;4988176;28;69452;-39
2022/11/04 09:33:27;;;;;;;13.70;12.32;;;;;;;30.21;69.33;100974.00;4994824;28;65377;-40
2022/11/04 09:35:57;;;;;;;12.57;11.55;;;;;;;30.19;69.84;100971.50;4997623;28;70225;-40
2022/11/04 09:38:27;;;;;;;15.02;12.45;;;;;;;30.18;69.48;100975.25;4997086;28;65731;-41
2022/11/04 09:40:59;;;;;;;11.82;10.07;;;;;;;29.61;68.07;100874.06;4991387;28;70179;-41
2022/11/04 09:43:51;;;;;;;11.10;10.00;;;;;;;30.23;68.96;100975.47;4997927;28;65513;-41
2022/11/04 09:46:23;;;;;;;11.20;10.20;;;;;;;30.25;67.88;100977.94;4997819;28;70708;-40
2022/11/04 09:48:56;;;;;;;10.35;9.50;;;;;;;30.26;67.79;100971.50;4998498;28;65947;-40
2022/11/04 09:51:26;;;;;;;10.50;9.57;;;;;;;30.33;67.90;100968.78;4997718;28;70731;-40
2022/11/04 09:54:57;;;;;;;9.82;8.98;;;;;;;30.24;68.08;100962.78;4997049;28;66513;-40
2022/11/04 09:57:27;;;;;;;9.70;9.02;;;;;;;30.30;67.42;100955.66;4996317;28;70626;-40
2022/11/04 09:59:58;;;;;;;9.65;8.75;;;;;;;29.98;66.95;100898.75;4996827;28;66287;-40
2022/11/04 10:02:52;;;;;;;14.40;9.35;;;;;;;30.42;67.83;100981.00;4995484;28;70458;-41
2022/11/04 10:05:37;;;;;;;19.40;10.43;;;;;;;30.21;71.35;100968.59;4993990;28;66816;-45
2022/11/04 10:08:36;;;;;;;15.10;10.68;;;;;;;30.21;72.29;100991.06;4996805;28;71013;-44
2022/11/04 10:11:19;;;;;;;19.17;12.43;;;;;;;30.16;72.79;100990.84;4995923;28;65434;-39
2022/11/04 10:14:33;;;;;;;49.60;14.15;;;;;;;29.86;75.14;100997.78;4994208;28;69643;-43
2022/11/04 10:17:27;;;;;;;27.42;14.40;;;;;;;29.92;75.03;101003.22;4971917;28;66790;-43
2022/11/04 10:20:28;;;;;;;25.50;16.05;;;;;;;29.78;75.61;101006.94;4974159;28;69390;-43
2022/11/04 10:23:11;;;;;;;25.15;18.23;;;;;;;29.37;75.49;100948.53;4993087;28;66645;-43
2022/11/04 10:26:06;;;;;;;19.40;13.93;;;;;;;29.74;74.05;101001.13;4987108;28;69038;-42
2022/11/04 10:28:42;;;;;;;13.50;12.27;;;;;;;29.74;73.66;100984.09;4991646;28;65868;-42
2022/11/04 10:31:18;;;;;;;13.80;12.48;;;;;;;29.90;72.73;101005.28;4995927;28;70231;-41
2022/11/04 10:33:57;;;;;;;13.85;12.05;;;;;;;29.88;72.52;100999.25;4996794;28;66144;-42
2022/11/04 10:36:27;;;;;;;14.25;11.10;;;;;;;30.09;71.80;101030.63;5010392;28;69991;-42
2022/11/04 10:39:01;;;;;;;12.50;11.20;;;;;;;30.07;72.46;101027.31;4997718;28;66191;-43
2022/11/04 10:41:36;;;;;;;12.57;10.85;;;;;;;29.75;71.98;100964.94;4996402;28;70487;-43
2022/11/04 10:44:21;;;;;;;12.60;11.43;;;;;;;30.21;72.19;101042.47;4995616;28;66249;-42
2022/11/04 10:47:28;;;;;;;22.63;13.63;;;;;;;30.08;74.70;101047.91;4993779;28;69529;-43
2022/11/04 10:50:12;;;;;;;28.80;14.18;;;;;;;30.04;75.10;101054.78;4997613;28;67112;-42
2022/11/04 10:53:14;;;;;;;14.57;13.00;;;;;;;29.92;75.28;101053.75;4996043;28;69554;-44
2022/11/04 10:55:48;;;;;;;16.73;13.48;;;;;;;29.60;75.43;100977.84;4996287;28;66573;-44
2022/11/04 10:58:26;;;;;;;14.80;13.38;;;;;;;29.65;75.76;101005.09;4998864;28;69977;-43
2022/11/04 11:00:58;;;;;;;17.67;13.80;;;;;;;29.88;75.70;101039.81;4993150;28;66890;-42
2022/11/04 11:03:34;;;;;;;17.15;13.90;;;;;;;29.44;76.06;100967.44;4995780;28;70561;-42
2022/11/04 11:06:13;;;;;;;20.30;16.20;;;;;;;29.96;76.17;101074.75;4993632;28;65859;-44
2022/11/04 11:08:43;;;;;;;29.50;15.13;;;;;;;29.91;76.65;101060.19;4993434;28;70171;-42
2022/11/04 11:11:14;;;;;;;25.48;16.17;;;;;;;29.97;77.02;101078.28;4996289;28;65689;-42
2022/11/04 11:13:45;;;;;;;27.63;17.10;;;;;;;29.83;77.19;101048.53;4993059;28;69358;-42
2022/11/04 11:16:24;;;;;;;23.05;16.60;;;;;;;29.93;76.89;101069.78;4995775;28;66347;-43
2022/11/04 11:19:17;;;;;;;27.15;17.40;;;;;;;29.46;77.47;101000.50;4993620;28;69689;-43
2022/11/04 11:21:49;;;;;;;21.88;17.63;;;;;;;29.53;77.72;100998.63;4995555;28;66400;-44
2022/11/04 11:24:24;;;;;;;20.05;18.02;;;;;;;30.03;77.56;101081.00;4995033;28;69571;-44
2022/11/04 11:27:01;;;;;;;22.83;19.50;;;;;;;29.57;77.69;101011.53;4995917;28;66519;-43
2022/11/04 11:29:39;;;;;;;26.38;18.50;;;;;;;29.75;76.52;101032.53;4992856;28;70454;-43
2022/11/04 11:32:35;;;;;;;20.10;16.35;;;;;;;29.99;76.96;101084.31;4994546;28;66398;-43
2022/11/04 11:35:17;;;;;;;23.05;18.05;;;;;;;29.66;76.85;101014.88;4991026;28;69188;-43
2022/11/04 11:37:47;;;;;;;20.92;18.45;;;;;;;30.17;75.51;101086.38;4990720;28;66644;-43
2022/11/04 11:40:36;;;;;;;20.80;18.30;;;;;;;30.14;75.67;101093.03;4996859;28;70397;-42
2022/11/04 11:43:30;;;;;;;23.35;19.33;;;;;;;30.24;75.26;101095.34;4997621;28;66337;-41
2022/11/04 11:46:01;;;;;;;20.25;18.42;;;;;;;30.20;74.96;101092.22;4991808;28;70134;-41
2022/11/04 11:51:39;;;;;;;22.85;20.58;;;;;;;30.30;74.88;101107.22;4997216;28;70179;-42
2022/11/04 11:54:26;;;;;;;23.63;21.30;;;;;;;30.31;74.64;101108.88;4994797;28;66294;-42
2022/11/04 11:56:59;;;;;;;21.85;19.63;;;;;;;30.33;74.49;101125.72;4996181;28;69906;-45
2022/11/04 11:59:51;;;;;;;23.05;20.42;;;;;;;29.94;74.14;101065.19;4994991;28;66623;-42
2022/11/04 12:03:20;;;;;;;21.98;19.90;;;;;;;30.18;74.58;101126.75;4993041;28;70576;-42
2022/11/04 12:05:59;;;;;;;23.98;21.45;;;;;;;30.32;74.01;101132.19;4985297;28;66171;-43
2022/11/04 12:09:08;;;;;;;30.40;23.15;;;;;;;30.15;76.10;101139.88;4996328;28;70454;-44
2022/11/04 12:11:53;;;;;;;30.48;25.27;;;;;;;30.25;77.12;101159.25;4995019;28;66279;-42
2022/11/04 12:14:32;;;;;;;;;;;;;;;29.95;78.24;101156.94;4994146;28;70450;-42
2022/11/04 12:17:23;;;;;;;37.05;25.13;;;;;;;30.17;78.60;101162.13;4994212;28;66371;-40
2022/11/04 12:20:19;;;;;;;39.50;24.60;;;;;;;30.06;77.71;101169.84;4993076;28;69301;-39
2022/11/04 12:22:56;;;;;;;38.75;23.95;;;;;;;30.04;75.36;101180.03;4994761;28;66219;-40
2022/11/04 12:25:44;;;;;;;24.30;21.73;;;;;;;29.97;74.42;101183.78;4991406;28;70098;-39
2022/11/04 12:28:24;;;;;;;24.20;21.33;;;;;;;29.87;72.41;101192.31;4995393;28;65830;-40